This is the latest recevied weather packets stored in our database for station/object WA7CUG. If no packets are shown the sender has not sent any weather packets the latest 10 day(s).
| Time | Temp. | Humidity | Pressure | Rain* | Wind** | Luminosity | Snow |
|---|---|---|---|---|---|---|---|
| 1778149697 | 14.44° C | 50% | 1013.7 hPa | 0 mm | - | 0 W/m² | - |
| 1778149394 | 14.44° C | 53% | 1013.7 hPa | 0 mm | - | 0 W/m² | - |
| 1778149091 | 14.44° C | 50% | 1013.5 hPa | 0 mm | - | 0 W/m² | - |
| 1778148791 | 13.89° C | 54% | 1013.6 hPa | 0 mm | - | 0 W/m² | - |
| 1778148488 | 15° C | 51% | 1013.4 hPa | 0 mm | - | 0 W/m² | - |
| 1778148186 | 16.11° C | 48% | 1013.4 hPa | 0 mm | - | 0 W/m² | - |
| 1778147884 | 16.11° C | 47% | 1013.4 hPa | 0 mm | - | 0 W/m² | - |
| 1778147580 | 16.11° C | 47% | 1013.5 hPa | 0 mm | - | 0 W/m² | - |
| 1778147277 | 16.11° C | 49% | 1013.4 hPa | 0 mm | - | 0 W/m² | - |
| 1778146974 | 16.11° C | 47% | 1013.4 hPa | 0 mm | - | 0 W/m² | - |
| 1778146671 | 16.67° C | 46% | 1013.4 hPa | 0 mm | - | 0 W/m² | - |
| 1778146369 | 14.44° C | 51% | 1013.5 hPa | 0 mm | - | 0 W/m² | - |
| 1778146067 | 15° C | 50% | 1013 hPa | 0 mm | - | 0 W/m² | - |
| 1778145762 | 16.67° C | 45% | 1013 hPa | 0 mm | - | 0 W/m² | - |
| 1778145459 | 15.56° C | 47% | 1013 hPa | 0 mm | - | 0 W/m² | - |
| 1778145156 | 16.11° C | 50% | 1013 hPa | 0 mm | - | 0 W/m² | - |
| 1778144851 | 16.11° C | 46% | 1013.2 hPa | 0 mm | - | 0 W/m² | - |
| 1778144548 | 17.22° C | 44% | 1013.1 hPa | 0 mm | - | 0 W/m² | - |
| 1778144245 | 17.22° C | 43% | 1013 hPa | 0 mm | - | 0 W/m² | - |
| 1778143937 | 17.22° C | 43% | 1012.9 hPa | 0 mm | - | 0 W/m² | - |
| 1778143634 | 17.22° C | 43% | 1012.8 hPa | 0 mm | - | 0 W/m² | - |
| 1778143330 | 17.22° C | 43% | 1013 hPa | 0 mm | - | 0 W/m² | - |
| 1778143028 | 17.78° C | 42% | 1013 hPa | 0 mm | - | 0 W/m² | - |
| 1778142724 | 17.78° C | 42% | 1012.6 hPa | 0 mm | - | 0 W/m² | - |
| 1778142420 | 18.33° C | 42% | 1012.7 hPa | 0 mm | - | 0 W/m² | - |
* Rain latest hour (hover to see other rain measurements)
** Current wind speed in m/s (hover to see current wind gust speed)